Time;durP1;ratioP1;P1;durP2;ratioP2;P2;SDS_P1;SDS_P2;PMS_P1;PMS_P2;Temp;Humidity;BMP_temperature;BMP_pressure;BME280_temperature;BME280_humidity;BME280_pressure;Samples;Min_cycle;Max_cycle;Signal;HPM_P1;HPM_P2
2023/07/26 00:01:04;;;;;;;2.80;1.05;;;18.30;82.30;;;;;;5009113;28;20046;-62
2023/07/26 00:03:54;;;;;;;2.88;1.38;;;18.30;82.60;;;;;;4997157;28;20057;-64
2023/07/26 00:06:40;;;;;;;6.68;1.48;;;18.30;82.60;;;;;;4989209;28;20042;-63
2023/07/26 00:09:26;;;;;;;3.05;1.40;;;18.30;82.70;;;;;;4992726;28;20113;-65
2023/07/26 00:12:12;;;;;;;2.53;1.20;;;18.30;82.70;;;;;;5008863;28;20042;-65
2023/07/26 00:14:58;;;;;;;3.88;1.45;;;18.30;82.70;;;;;;5008900;28;20483;-66
2023/07/26 00:17:44;;;;;;;5.57;1.98;;;18.20;82.90;;;;;;5007290;28;20070;-65
2023/07/26 00:20:30;;;;;;;3.00;1.40;;;18.10;83.10;;;;;;4989435;28;20049;-64
2023/07/26 00:23:16;;;;;;;5.15;2.17;;;18.20;83.30;;;;;;5001316;28;20049;-72
2023/07/26 00:26:02;;;;;;;4.35;1.70;;;18.10;83.40;;;;;;5007386;28;20034;-73
2023/07/26 00:28:48;;;;;;;1.42;0.82;;;18.10;83.50;;;;;;5004806;28;20045;-72
2023/07/26 00:31:34;;;;;;;1.83;1.40;;;18.00;83.80;;;;;;4989771;28;20141;-70
2023/07/26 00:34:20;;;;;;;4.57;1.42;;;17.90;84.00;;;;;;4989085;28;20038;-71
2023/07/26 00:37:06;;;;;;;2.45;1.17;;;17.80;84.10;;;;;;4990482;28;20057;-71
2023/07/26 00:39:52;;;;;;;4.20;1.33;;;17.80;84.10;;;;;;5003643;28;20061;-71
2023/07/26 00:42:38;;;;;;;4.45;1.60;;;17.80;84.20;;;;;;5001298;28;20069;-71
2023/07/26 00:45:25;;;;;;;2.67;1.42;;;17.80;84.20;;;;;;4996233;28;20475;-71
2023/07/26 00:48:12;;;;;;;2.47;1.20;;;17.80;84.10;;;;;;5002428;28;20085;-73
2023/07/26 00:50:59;;;;;;;1.95;1.20;;;17.70;84.30;;;;;;5000174;28;20495;-71
2023/07/26 00:53:46;;;;;;;2.70;1.60;;;17.60;84.30;;;;;;5006763;28;20045;-72
2023/07/26 00:56:31;;;;;;;8.93;1.52;;;17.50;84.40;;;;;;4988601;28;20050;-72
2023/07/26 00:59:18;;;;;;;3.17;1.30;;;17.50;84.70;;;;;;4988985;28;20042;-72
2023/07/26 01:02:04;;;;;;;4.00;1.40;;;17.40;84.80;;;;;;4982576;28;20493;-72
2023/07/26 01:04:51;;;;;;;3.28;1.70;;;17.40;85.10;;;;;;4991659;28;20042;-70
2023/07/26 01:08:06;;;;;;;3.63;1.30;;;17.30;85.10;;;;;;4999303;28;20042;-71
2023/07/26 01:10:58;;;;;;;3.03;1.50;;;17.30;85.20;;;;;;5001759;28;20061;-71
2023/07/26 01:14:00;;;;;;;5.18;1.77;;;17.20;85.50;;;;;;5003593;28;20100;-71
2023/07/26 01:16:46;;;;;;;5.05;1.42;;;17.20;86.00;;;;;;5010527;28;20049;-71
2023/07/26 01:19:32;;;;;;;2.90;1.48;;;17.20;85.50;;;;;;4993491;28;20030;-70
2023/07/26 01:22:18;;;;;;;2.15;1.27;;;17.20;85.60;;;;;;4996899;28;20049;-70
2023/07/26 01:25:05;;;;;;;3.08;1.30;;;17.10;85.60;;;;;;5006411;28;20034;-68
2023/07/26 01:27:51;;;;;;;2.63;1.80;;;17.00;85.80;;;;;;5000423;28;20517;-68
2023/07/26 01:30:37;;;;;;;6.60;2.08;;;16.90;85.90;;;;;;5011481;28;20064;-67
2023/07/26 01:33:24;;;;;;;3.40;1.77;;;16.90;86.20;;;;;;5010867;28;20042;-67
2023/07/26 01:36:12;;;;;;;3.13;1.70;;;16.80;86.30;;;;;;5010281;28;20117;-68
2023/07/26 01:38:59;;;;;;;2.47;1.30;;;16.80;86.40;;;;;;5010400;28;20068;-70
2023/07/26 01:41:46;;;;;;;4.38;1.90;;;16.80;87.10;;;;;;5009327;28;20045;-70
2023/07/26 01:44:38;;;;;;;3.40;1.63;;;16.80;86.60;;;;;;4992158;28;20085;-70
2023/07/26 01:47:24;;;;;;;2.45;1.40;;;16.70;87.20;;;;;;4998846;28;20383;-72
2023/07/26 01:50:10;;;;;;;3.10;1.50;;;16.60;86.90;;;;;;4991488;28;20045;-71
2023/07/26 01:52:56;;;;;;;4.05;2.03;;;16.60;87.30;;;;;;5000310;28;20551;-71
2023/07/26 01:55:42;;;;;;;3.75;1.67;;;16.50;87.50;;;;;;4995845;28;20042;-72
2023/07/26 01:58:28;;;;;;;5.30;1.40;;;16.60;87.70;;;;;;4996336;28;20132;-71
2023/07/26 02:01:14;;;;;;;3.05;1.40;;;16.50;87.80;;;;;;5000709;28;20104;-69
2023/07/26 02:04:00;;;;;;;2.35;1.33;;;16.40;88.00;;;;;;5008673;28;20414;-70
2023/07/26 02:06:46;;;;;;;3.42;1.73;;;16.40;88.20;;;;;;5010134;28;20157;-71
2023/07/26 02:09:32;;;;;;;6.03;2.08;;;16.40;88.40;;;;;;5002391;28;20034;-71
2023/07/26 02:12:18;;;;;;;3.90;1.65;;;16.40;88.40;;;;;;4998948;28;20033;-71
2023/07/26 02:15:05;;;;;;;3.25;1.58;;;16.30;88.60;;;;;;4995926;28;20048;-70
2023/07/26 02:17:51;;;;;;;5.18;1.60;;;16.30;88.90;;;;;;5006066;28;20041;-71
2023/07/26 02:20:37;;;;;;;3.80;1.70;;;16.30;89.00;;;;;;5009918;28;20053;-71
2023/07/26 02:23:23;;;;;;;4.90;2.45;;;16.30;89.20;;;;;;4999866;28;20478;-71
2023/07/26 02:26:09;;;;;;;4.20;1.67;;;16.20;89.30;;;;;;5010511;28;20045;-71
2023/07/26 02:28:55;;;;;;;2.92;1.80;;;16.20;89.40;;;;;;5004303;28;20046;-71
2023/07/26 02:31:41;;;;;;;3.67;1.52;;;16.20;89.70;;;;;;4994432;28;20092;-71
2023/07/26 02:34:27;;;;;;;4.20;1.45;;;16.20;90.00;;;;;;5002680;28;20093;-71
2023/07/26 02:37:13;;;;;;;3.13;1.50;;;16.10;90.10;;;;;;4996264;28;20049;-70
2023/07/26 02:39:59;;;;;;;4.57;1.77;;;16.10;90.30;;;;;;4991349;28;20050;-70
2023/07/26 02:42:44;;;;;;;3.75;1.83;;;16.10;90.30;;;;;;4999925;28;20053;-71
2023/07/26 02:45:30;;;;;;;2.65;1.77;;;16.00;90.30;;;;;;5010977;28;20038;-71
2023/07/26 02:48:16;;;;;;;3.45;1.67;;;16.00;90.30;;;;;;4993262;28;20445;-70
2023/07/26 02:51:02;;;;;;;3.15;1.48;;;16.00;90.40;;;;;;5001609;28;20054;-69
2023/07/26 02:53:49;;;;;;;5.15;1.92;;;16.00;90.40;;;;;;5008946;28;20045;-72
2023/07/26 02:56:35;;;;;;;6.03;2.53;;;16.00;90.50;;;;;;4988760;28;20655;-70
2023/07/26 02:59:21;;;;;;;5.20;1.83;;;16.00;90.60;;;;;;5007401;28;20080;-71
2023/07/26 03:02:07;;;;;;;3.72;1.60;;;16.00;90.60;;;;;;5005714;28;20066;-72
2023/07/26 03:04:53;;;;;;;5.05;1.83;;;16.00;90.70;;;;;;4995952;28;20049;-72
2023/07/26 03:07:39;;;;;;;3.58;1.88;;;16.00;90.80;;;;;;4991837;28;20049;-71
2023/07/26 03:10:25;;;;;;;7.22;1.80;;;16.00;90.80;;;;;;5003750;28;20410;-72
2023/07/26 03:13:10;;;;;;;3.03;1.50;;;16.00;90.90;;;;;;4995893;28;20502;-72
2023/07/26 03:15:56;;;;;;;3.75;1.50;;;16.00;91.00;;;;;;4990282;28;20125;-71
2023/07/26 03:18:43;;;;;;;6.55;1.70;;;16.00;91.10;;;;;;5000655;28;20046;-70
2023/07/26 03:21:29;;;;;;;4.35;1.73;;;16.00;91.10;;;;;;5008904;28;20491;-70
2023/07/26 03:24:15;;;;;;;3.20;1.60;;;16.00;91.20;;;;;;5008322;28;20042;-70
2023/07/26 03:27:01;;;;;;;3.75;2.20;;;16.00;91.20;;;;;;5002856;28;20119;-69
2023/07/26 03:29:46;;;;;;;6.80;1.60;;;16.00;91.40;;;;;;5009342;28;20038;-69
2023/07/26 03:32:32;;;;;;;7.72;1.80;;;16.10;91.40;;;;;;5002751;28;20046;-70
2023/07/26 03:35:18;;;;;;;3.90;1.90;;;16.10;91.40;;;;;;5008989;28;20061;-70
2023/07/26 03:38:04;;;;;;;4.78;2.00;;;16.10;91.50;;;;;;5008291;28;20049;-70
2023/07/26 03:40:50;;;;;;;4.13;2.03;;;16.10;91.60;;;;;;4990479;28;20047;-70
2023/07/26 03:43:36;;;;;;;3.85;1.90;;;16.10;91.60;;;;;;4990628;28;20177;-70
2023/07/26 03:46:22;;;;;;;3.88;2.08;;;16.10;91.70;;;;;;4989859;28;20510;-70
2023/07/26 03:49:08;;;;;;;7.47;1.75;;;16.10;91.90;;;;;;5021451;28;20080;-69
2023/07/26 03:51:54;;;;;;;3.58;2.13;;;16.20;91.80;;;;;;5013628;28;20423;-70
2023/07/26 03:54:40;;;;;;;3.28;2.15;;;16.20;91.80;;;;;;4989860;28;20042;-70
2023/07/26 03:57:26;;;;;;;5.65;2.20;;;16.20;91.80;;;;;;5005259;28;20038;-71
2023/07/26 04:00:12;;;;;;;4.32;1.88;;;16.20;91.90;;;;;;5009315;28;20057;-64
2023/07/26 04:02:58;;;;;;;5.82;1.95;;;16.20;92.00;;;;;;5007801;28;20407;-64
2023/07/26 04:05:44;;;;;;;3.63;1.42;;;16.20;92.10;;;;;;5008224;28;20532;-64
2023/07/26 04:08:30;;;;;;;3.35;1.70;;;16.30;92.20;;;;;;5002870;28;20483;-63
2023/07/26 04:11:16;;;;;;;4.82;1.85;;;16.30;92.20;;;;;;4989412;28;20430;-63
2023/07/26 04:14:02;;;;;;;4.75;1.95;;;16.40;92.10;;;;;;5007948;28;20054;-63
2023/07/26 04:16:48;;;;;;;3.42;1.98;;;16.40;92.10;;;;;;5006552;28;20046;-63
2023/07/26 04:19:34;;;;;;;4.65;2.33;;;16.40;92.20;;;;;;4989236;28;20042;-64
2023/07/26 04:22:20;;;;;;;4.50;1.95;;;16.40;92.20;;;;;;4990458;28;20846;-63
2023/07/26 04:25:07;;;;;;;4.18;1.98;;;16.40;92.30;;;;;;4989302;28;20038;-65
2023/07/26 04:27:53;;;;;;;4.03;1.88;;;16.40;92.40;;;;;;4996053;28;20092;-66
2023/07/26 04:30:38;;;;;;;5.00;1.90;;;16.50;92.50;;;;;;5007445;28;20095;-66
2023/07/26 04:33:24;;;;;;;4.43;2.03;;;16.60;92.60;;;;;;5003080;28;20041;-68
2023/07/26 04:36:11;;;;;;;3.97;1.70;;;16.60;92.50;;;;;;5005109;28;20506;-66
2023/07/26 04:38:57;;;;;;;4.57;2.15;;;16.60;92.40;;;;;;5007390;28;20042;-66
2023/07/26 04:41:43;;;;;;;6.03;2.03;;;16.70;92.50;;;;;;4996987;28;20046;-65
2023/07/26 04:44:29;;;;;;;4.03;1.70;;;16.80;92.40;;;;;;4995263;28;20125;-66
2023/07/26 04:47:18;;;;;;;3.25;1.60;;;16.90;92.40;;;;;;5005984;28;20119;-66
2023/07/26 04:50:04;;;;;;;5.20;1.80;;;16.90;92.40;;;;;;5010714;28;20057;-66
2023/07/26 04:52:50;;;;;;;6.95;2.35;;;16.90;92.50;;;;;;5000267;28;20084;-67
2023/07/26 04:55:50;;;;;;;3.78;1.55;;;17.00;92.40;;;;;;5010799;28;20057;-67
2023/07/26 04:58:36;;;;;;;4.78;2.30;;;17.10;92.50;;;;;;5002677;28;20042;-72
2023/07/26 05:01:23;;;;;;;4.53;1.50;;;17.20;92.50;;;;;;5008402;28;20042;-72
2023/07/26 05:04:09;;;;;;;6.13;1.63;;;17.30;92.50;;;;;;5005916;28;20692;-72
2023/07/26 05:06:55;;;;;;;6.25;1.63;;;17.30;92.50;;;;;;5008438;28;20042;-71
2023/07/26 05:09:41;;;;;;;3.70;1.60;;;17.40;92.40;;;;;;5001316;28;20049;-73
2023/07/26 05:12:27;;;;;;;5.90;2.20;;;17.40;92.30;;;;;;5005074;28;20042;-72
2023/07/26 05:15:13;;;;;;;3.58;1.52;;;17.50;92.10;;;;;;4982736;28;22044;-74
2023/07/26 05:17:59;;;;;;;3.92;1.90;;;17.50;92.00;;;;;;5001760;28;20046;-72
2023/07/26 05:20:49;;;;;;;8.05;2.10;;;17.50;92.10;;;;;;4998595;28;20491;-71
2023/07/26 05:23:35;;;;;;;8.50;1.85;;;17.50;92.00;;;;;;5007741;28;20100;-71
2023/07/26 05:26:21;;;;;;;3.88;1.63;;;17.50;91.80;;;;;;5011807;28;20085;-68
2023/07/26 05:29:07;;;;;;;3.85;2.10;;;17.50;91.80;;;;;;5004518;28;20046;-72
2023/07/26 05:31:53;;;;;;;7.72;1.80;;;17.40;91.80;;;;;;5009062;28;21537;-71
2023/07/26 05:34:38;;;;;;;13.25;2.47;;;17.40;91.90;;;;;;4996211;28;20414;-75
2023/07/26 05:37:25;;;;;;;4.25;2.00;;;17.40;91.90;;;;;;4994409;28;20747;-76
2023/07/26 05:40:11;;;;;;;3.75;1.67;;;17.40;91.90;;;;;;5003006;28;20502;-76
2023/07/26 05:42:57;;;;;;;4.38;1.70;;;17.40;92.00;;;;;;4992665;28;20463;-76
2023/07/26 05:45:43;;;;;;;7.28;1.67;;;17.40;92.00;;;;;;4997176;28;20069;-76
2023/07/26 05:48:30;;;;;;;6.10;1.70;;;17.50;92.00;;;;;;4994850;28;20038;-76
2023/07/26 05:51:16;;;;;;;3.92;1.70;;;17.50;92.10;;;;;;4989244;28;20060;-75
2023/07/26 05:54:02;;;;;;;3.63;1.55;;;17.50;92.10;;;;;;4992079;28;20059;-76
2023/07/26 05:56:48;;;;;;;4.35;2.10;;;17.50;92.10;;;;;;4992657;28;20503;-73
2023/07/26 05:59:34;;;;;;;5.85;2.10;;;17.60;92.10;;;;;;5009209;28;20096;-73
2023/07/26 06:02:21;;;;;;;5.65;2.00;;;17.60;92.10;;;;;;5004088;28;20500;-74
2023/07/26 06:05:07;;;;;;;6.60;2.08;;;17.70;92.10;;;;;;5010807;28;20418;-74
2023/07/26 06:07:53;;;;;;;5.20;2.10;;;17.70;92.10;;;;;;5003485;28;20260;-73
2023/07/26 06:10:39;;;;;;;10.40;1.92;;;17.80;92.00;;;;;;4997238;28;20054;-74
2023/07/26 06:13:25;;;;;;;4.20;1.70;;;17.80;91.80;;;;;;5002871;28;20491;-64
2023/07/26 06:16:11;;;;;;;4.35;1.70;;;17.80;91.90;;;;;;4991830;28;20046;-63
2023/07/26 06:18:57;;;;;;;2.72;1.30;;;17.80;92.00;;;;;;4992050;28;20398;-64
2023/07/26 06:21:43;;;;;;;3.75;1.92;;;17.80;92.00;;;;;;4986980;28;20076;-64
2023/07/26 06:24:29;;;;;;;4.88;1.98;;;17.80;92.00;;;;;;4999465;28;20069;-64
2023/07/26 06:27:21;;;;;;;3.42;1.50;;;17.90;92.00;;;;;;4998186;28;20042;-64
2023/07/26 06:30:07;;;;;;;4.80;1.90;;;17.90;92.00;;;;;;4991883;28;20611;-63
2023/07/26 06:32:53;;;;;;;5.32;1.50;;;18.00;91.90;;;;;;4991833;28;20074;-64
2023/07/26 06:35:40;;;;;;;3.97;1.80;;;18.10;91.90;;;;;;5003510;28;20164;-62
2023/07/26 06:38:25;;;;;;;5.72;1.65;;;18.10;91.80;;;;;;5003420;28;20088;-63
2023/07/26 06:41:12;;;;;;;4.43;1.70;;;18.20;91.80;;;;;;4990733;28;20069;-64
2023/07/26 06:43:57;;;;;;;2.83;1.55;;;18.30;91.90;;;;;;5003108;28;20058;-64
2023/07/26 06:46:43;;;;;;;3.58;1.75;;;18.30;91.80;;;;;;4996554;28;20084;-63
2023/07/26 06:49:29;;;;;;;5.72;1.90;;;18.40;91.70;;;;;;5000562;28;20050;-63
2023/07/26 06:52:16;;;;;;;3.38;1.55;;;18.40;91.70;;;;;;4995956;28;20046;-64
2023/07/26 06:55:03;;;;;;;3.03;1.70;;;18.50;91.60;;;;;;4993252;28;20041;-65
2023/07/26 06:57:51;;;;;;;5.30;2.47;;;18.60;91.60;;;;;;4994857;28;20064;-64
2023/07/26 07:00:37;;;;;;;7.82;2.20;;;18.70;91.40;;;;;;4992912;28;20037;-63
2023/07/26 07:03:23;;;;;;;5.10;1.60;;;18.70;91.20;;;;;;4996531;28;20041;-63
2023/07/26 07:06:09;;;;;;;6.03;1.80;;;18.80;91.20;;;;;;4988325;28;20053;-64
2023/07/26 07:08:55;;;;;;;5.78;2.58;;;18.90;91.10;;;;;;4991455;28;20034;-64
2023/07/26 07:11:41;;;;;;;2.90;1.38;;;19.00;91.10;;;;;;4992731;28;20124;-63
2023/07/26 07:14:27;;;;;;;4.10;1.90;;;19.10;91.10;;;;;;4989134;28;20038;-64
2023/07/26 07:17:13;;;;;;;2.55;1.30;;;19.20;91.00;;;;;;4991790;28;20042;-64
2023/07/26 07:19:59;;;;;;;2.58;1.30;;;19.30;90.40;;;;;;4989923;28;20053;-64
2023/07/26 07:22:45;;;;;;;4.00;1.38;;;19.40;90.30;;;;;;4998492;28;20046;-64
2023/07/26 07:25:31;;;;;;;3.58;1.30;;;19.60;90.10;;;;;;5008961;28;20052;-64
2023/07/26 07:28:17;;;;;;;2.72;1.60;;;19.70;90.10;;;;;;5000876;28;20145;-66
2023/07/26 07:31:02;;;;;;;2.10;1.20;;;19.80;89.60;;;;;;4999730;28;20066;-65
2023/07/26 07:33:48;;;;;;;3.08;1.20;;;19.80;89.70;;;;;;4998801;28;20033;-65
2023/07/26 07:36:34;;;;;;;3.92;1.83;;;20.00;89.50;;;;;;4992854;28;20103;-65
2023/07/26 07:39:20;;;;;;;2.80;1.20;;;20.10;89.80;;;;;;4992409;28;20046;-66
2023/07/26 07:42:06;;;;;;;2.50;1.60;;;20.10;88.60;;;;;;4989558;28;20041;-66
2023/07/26 07:44:52;;;;;;;6.50;2.63;;;20.20;88.60;;;;;;4990432;28;20050;-65
2023/07/26 07:47:38;;;;;;;9.95;2.53;;;20.30;88.30;;;;;;4997523;28;20116;-66
2023/07/26 07:50:24;;;;;;;2.60;1.60;;;20.40;88.10;;;;;;4988456;28;20057;-65
2023/07/26 07:53:11;;;;;;;1.83;1.10;;;20.50;87.50;;;;;;5002729;28;20068;-65
2023/07/26 07:55:56;;;;;;;6.57;2.10;;;20.50;87.30;;;;;;5009195;28;20046;-65
2023/07/26 07:58:43;;;;;;;4.50;1.60;;;20.50;86.90;;;;;;5007418;28;20034;-65
2023/07/26 08:01:29;;;;;;;3.83;1.85;;;20.50;86.10;;;;;;5009172;28;20053;-66
2023/07/26 08:04:14;;;;;;;1.83;0.98;;;20.40;86.30;;;;;;4989656;28;20043;-65
2023/07/26 08:07:00;;;;;;;3.55;1.73;;;20.40;85.50;;;;;;4992766;28;20080;-65
2023/07/26 08:09:46;;;;;;;2.92;1.60;;;20.50;85.40;;;;;;4991349;28;20117;-65
2023/07/26 08:12:35;;;;;;;4.30;2.08;;;20.40;85.30;;;;;;5001463;28;20491;-65
2023/07/26 08:15:21;;;;;;;2.20;1.65;;;20.50;85.70;;;;;;5012499;28;20049;-65
2023/07/26 08:18:08;;;;;;;2.50;1.50;;;20.60;85.40;;;;;;5011689;28;20388;-65
2023/07/26 08:20:54;;;;;;;2.67;1.27;;;20.60;84.20;;;;;;5011833;28;20045;-65
2023/07/26 08:23:40;;;;;;;2.85;1.35;;;20.60;84.30;;;;;;4997389;28;20402;-65
2023/07/26 08:26:26;;;;;;;1.70;1.17;;;20.60;84.00;;;;;;4992552;28;20042;-66
2023/07/26 08:29:12;;;;;;;3.53;1.23;;;20.70;84.00;;;;;;4995498;28;20042;-66
2023/07/26 08:31:58;;;;;;;5.53;1.67;;;20.80;83.70;;;;;;5009527;28;20698;-66
2023/07/26 08:34:44;;;;;;;3.83;1.48;;;20.80;83.70;;;;;;4999749;28;20108;-66
2023/07/26 08:37:30;;;;;;;2.50;1.80;;;20.90;83.50;;;;;;5009754;28;20509;-68
2023/07/26 08:40:17;;;;;;;2.47;1.35;;;21.10;83.50;;;;;;5012222;28;20042;-71
2023/07/26 08:43:06;;;;;;;1.92;1.30;;;21.10;83.10;;;;;;5012129;28;20145;-71
2023/07/26 08:45:52;;;;;;;4.95;1.48;;;21.20;82.60;;;;;;4993066;28;20118;-72
2023/07/26 08:48:39;;;;;;;5.15;1.73;;;21.20;82.00;;;;;;5007210;28;20045;-71
2023/07/26 08:51:26;;;;;;;3.85;1.30;;;21.30;81.40;;;;;;5001923;28;20054;-72
2023/07/26 08:54:13;;;;;;;2.30;1.35;;;21.30;81.20;;;;;;5006099;28;20533;-71
2023/07/26 08:56:59;;;;;;;1.75;1.15;;;21.20;81.10;;;;;;5008897;28;20095;-72
2023/07/26 08:59:45;;;;;;;3.28;1.45;;;21.20;81.00;;;;;;4992548;28;20038;-72
2023/07/26 09:02:32;;;;;;;3.78;1.60;;;21.20;81.30;;;;;;4994524;28;20088;-71
2023/07/26 09:05:18;;;;;;;3.03;1.25;;;21.20;81.20;;;;;;4992681;28;20125;-71
2023/07/26 09:08:04;;;;;;;2.90;1.30;;;21.20;81.10;;;;;;5000373;28;20089;-72
2023/07/26 09:10:50;;;;;;;3.03;1.42;;;21.30;81.30;;;;;;5012151;28;20057;-72
2023/07/26 09:13:36;;;;;;;7.90;2.00;;;21.30;80.60;;;;;;5000329;28;20042;-72
2023/07/26 09:16:26;;;;;;;4.10;1.40;;;21.30;81.00;;;;;;5012322;28;20053;-72
2023/07/26 09:19:12;;;;;;;7.80;1.80;;;21.40;80.90;;;;;;4991926;28;20134;-71
2023/07/26 09:22:00;;;;;;;8.73;1.83;;;21.40;80.10;;;;;;4993967;28;20457;-70
2023/07/26 09:24:49;;;;;;;5.03;1.75;;;21.50;79.90;;;;;;5010327;28;20053;-70
2023/07/26 09:27:52;;;;;;;1.63;1.05;;;21.50;79.90;;;;;;5004130;28;20050;-74
2023/07/26 09:30:45;;;;;;;2.95;1.45;;;21.60;79.70;;;;;;4980591;28;20058;-71
2023/07/26 09:33:31;;;;;;;2.67;1.20;;;21.60;79.90;;;;;;4995091;28;20080;-70
2023/07/26 09:36:17;;;;;;;3.25;1.88;;;21.70;78.90;;;;;;5000383;28;20054;-70
2023/07/26 09:39:03;;;;;;;3.70;1.35;;;21.70;79.40;;;;;;4998860;28;20077;-71
2023/07/26 09:41:50;;;;;;;3.03;1.50;;;21.80;79.30;;;;;;4992446;28;20045;-74
2023/07/26 09:44:37;;;;;;;4.47;1.63;;;21.80;78.50;;;;;;4991193;28;20038;-71
2023/07/26 09:47:34;;;;;;;3.50;1.35;;;21.80;78.70;;;;;;4999012;28;20676;-70
2023/07/26 09:50:30;;;;;;;3.17;1.48;;;21.80;78.50;;;;;;4992737;28;20065;-70
2023/07/26 09:53:16;;;;;;;3.45;1.80;;;21.80;78.10;;;;;;5000343;28;20045;-70
2023/07/26 09:56:03;;;;;;;5.72;2.30;;;21.90;78.20;;;;;;4993082;28;20050;-70
2023/07/26 09:58:50;;;;;;;4.40;1.67;;;21.90;77.80;;;;;;5005291;28;20045;-70
2023/07/26 10:01:42;;;;;;;7.35;2.05;;;22.00;77.50;;;;;;4990095;28;20054;-70
2023/07/26 10:04:39;;;;;;;8.02;1.80;;;22.00;77.40;;;;;;5000105;28;20046;-70
2023/07/26 10:07:27;;;;;;;3.03;1.30;;;22.10;77.10;;;;;;4992577;28;20086;-69
2023/07/26 10:10:16;;;;;;;5.30;1.80;;;22.10;76.90;;;;;;5007847;28;20470;-70
2023/07/26 10:13:04;;;;;;;2.10;1.13;;;22.10;76.90;;;;;;4998991;28;20410;-70
2023/07/26 10:15:52;;;;;;;1.65;1.15;;;22.20;76.30;;;;;;5005470;28;20466;-70
2023/07/26 10:18:41;;;;;;;3.50;1.60;;;22.10;75.80;;;;;;5010575;28;20426;-71
2023/07/26 10:21:27;;;;;;;6.82;1.38;;;22.20;76.60;;;;;;5010403;28;20088;-71
2023/07/26 10:24:15;;;;;;;5.15;1.50;;;22.30;76.70;;;;;;4996931;28;20041;-71
2023/07/26 10:27:02;;;;;;;3.03;1.85;;;22.40;76.20;;;;;;4993770;28;20041;-70
2023/07/26 10:29:48;;;;;;;4.55;1.30;;;22.50;76.30;;;;;;5002671;28;20498;-69
2023/07/26 10:32:39;;;;;;;6.28;1.40;;;22.50;75.10;;;;;;4991818;28;20499;-71
2023/07/26 10:35:32;;;;;;;1.98;1.13;;;22.50;75.00;;;;;;4996067;28;20121;-70
2023/07/26 10:38:19;;;;;;;3.80;1.30;;;22.40;73.00;;;;;;4991402;28;20145;-70
2023/07/26 10:41:27;;;;;;;2.85;1.02;;;22.40;73.70;;;;;;4995218;28;20046;-70
2023/07/26 10:44:13;;;;;;;4.30;1.42;;;22.40;75.10;;;;;;5007586;28;20046;-71
2023/07/26 10:47:03;;;;;;;2.65;1.38;;;22.40;74.00;;;;;;4991841;28;20480;-71
2023/07/26 10:49:49;;;;;;;6.82;2.20;;;22.40;73.60;;;;;;4990479;28;20056;-71
2023/07/26 10:52:37;;;;;;;13.70;2.25;;;22.40;73.90;;;;;;4996867;28;20061;-71
2023/07/26 10:55:24;;;;;;;2.35;1.45;;;22.50;73.80;;;;;;4989145;28;20069;-71
2023/07/26 10:58:13;;;;;;;10.15;2.50;;;22.50;73.50;;;;;;4987821;28;20111;-70
2023/07/26 11:01:05;;;;;;;10.10;3.10;;;22.50;73.50;;;;;;4999578;28;20042;-70
2023/07/26 11:03:56;;;;;;;8.70;2.58;;;22.60;74.40;;;;;;5000182;28;20045;-75
2023/07/26 11:06:54;;;;;;;5.00;2.30;;;22.70;74.10;;;;;;4991724;28;20044;-73
2023/07/26 11:09:42;;;;;;;9.23;2.65;;;22.80;73.30;;;;;;4988785;28;20456;-73
2023/07/26 11:12:27;;;;;;;7.53;1.95;;;22.80;73.20;;;;;;4994706;28;20038;-73
2023/07/26 11:15:14;;;;;;;2.78;1.30;;;22.90;72.40;;;;;;4994971;28;20057;-72
2023/07/26 11:18:00;;;;;;;7.38;1.70;;;23.00;72.30;;;;;;4991697;28;20046;-73
2023/07/26 11:20:52;;;;;;;4.72;2.03;;;23.10;72.40;;;;;;4995408;28;20042;-72
2023/07/26 11:23:38;;;;;;;4.75;1.70;;;23.20;72.70;;;;;;4996765;28;20097;-73
2023/07/26 11:26:25;;;;;;;4.50;1.48;;;23.20;72.20;;;;;;5004205;28;20518;-73
2023/07/26 11:29:12;;;;;;;3.30;1.50;;;23.30;72.00;;;;;;4991301;28;20042;-73
2023/07/26 11:32:03;;;;;;;2.80;1.20;;;23.20;72.20;;;;;;4995873;28;20077;-71
2023/07/26 11:34:56;;;;;;;2.25;1.30;;;23.20;71.10;;;;;;4996513;28;20045;-71
2023/07/26 11:37:56;;;;;;;2.42;1.58;;;23.10;71.90;;;;;;4998084;28;20408;-71
2023/07/26 11:40:43;;;;;;;7.07;1.80;;;23.00;71.50;;;;;;5004434;28;20111;-75
2023/07/26 11:43:30;;;;;;;7.60;2.22;;;22.80;73.60;;;;;;5003884;28;20046;-75
2023/07/26 11:46:26;;;;;;;13.63;7.43;;;22.50;76.10;;;;;;4989917;28;20114;-73
2023/07/26 11:49:22;;;;;;;9.48;4.68;;;22.20;77.90;;;;;;4993971;28;20145;-72
2023/07/26 11:52:16;;;;;;;8.38;3.85;;;21.90;79.00;;;;;;4980328;28;20104;-72
2023/07/26 11:55:04;;;;;;;11.85;3.40;;;21.70;80.10;;;;;;4993923;28;20518;-70
2023/07/26 11:57:51;;;;;;;19.23;4.25;;;21.50;81.40;;;;;;4999699;28;20125;-70
2023/07/26 12:00:40;;;;;;;24.02;5.95;;;21.50;82.50;;;;;;4994944;28;20442;-70
2023/07/26 12:03:30;;;;;;;7.75;2.50;;;21.50;83.70;;;;;;5004689;28;20045;-71
2023/07/26 12:06:16;;;;;;;7.88;2.50;;;21.50;84.90;;;;;;4988670;28;20488;-70
2023/07/26 12:09:09;;;;;;;12.82;3.05;;;21.60;85.50;;;;;;4995127;28;20066;-71
2023/07/26 12:11:56;;;;;;;12.32;3.67;;;21.60;86.00;;;;;;4992470;28;20095;-70
2023/07/26 12:14:43;;;;;;;20.40;4.00;;;21.60;86.10;;;;;;4987193;28;20050;-71
2023/07/26 12:17:29;;;;;;;8.30;2.38;;;21.60;86.80;;;;;;4991051;28;20042;-73
2023/07/26 12:20:15;;;;;;;13.95;2.72;;;21.60;85.60;;;;;;4989358;28;20058;-72
2023/07/26 12:23:01;;;;;;;10.00;3.03;;;21.60;85.70;;;;;;5001299;28;20107;-71
2023/07/26 12:25:52;;;;;;;9.93;2.42;;;21.60;86.30;;;;;;4999075;28;20057;-72
2023/07/26 12:28:38;;;;;;;5.25;2.25;;;21.50;86.60;;;;;;5007213;28;20410;-73
2023/07/26 12:31:26;;;;;;;9.43;3.55;;;21.50;87.20;;;;;;4988773;28;20109;-72
2023/07/26 12:34:14;;;;;;;12.32;3.28;;;21.50;87.80;;;;;;4989295;28;20042;-72
2023/07/26 12:37:00;;;;;;;19.13;4.35;;;21.60;88.50;;;;;;4992955;28;20042;-71
2023/07/26 12:39:48;;;;;;;22.50;4.53;;;21.80;88.90;;;;;;5006652;28;20053;-70
2023/07/26 12:42:35;;;;;;;13.73;4.43;;;21.90;88.80;;;;;;4997456;28;20076;-69
2023/07/26 12:45:21;;;;;;;15.05;3.75;;;22.10;89.10;;;;;;4998384;28;20093;-70
2023/07/26 12:48:06;;;;;;;4.55;2.13;;;22.20;87.90;;;;;;4990441;28;20418;-71
2023/07/26 12:50:54;;;;;;;11.38;2.85;;;22.30;87.70;;;;;;4996110;28;20622;-70
2023/07/26 12:53:40;;;;;;;8.27;2.50;;;22.40;87.40;;;;;;4990755;28;20050;-69
2023/07/26 12:56:26;;;;;;;6.28;2.83;;;22.60;87.20;;;;;;4992749;28;20042;-72
2023/07/26 12:59:12;;;;;;;2.92;1.45;;;22.70;85.90;;;;;;5010421;28;20446;-70
2023/07/26 13:01:58;;;;;;;5.28;2.15;;;22.80;85.90;;;;;;4998877;28;20042;-68
2023/07/26 13:04:44;;;;;;;4.95;1.70;;;23.00;85.90;;;;;;4991622;28;20460;-68
2023/07/26 13:07:30;;;;;;;3.10;1.95;;;23.10;86.10;;;;;;5001663;28;20135;-69
2023/07/26 13:10:15;;;;;;;3.35;1.63;;;23.30;85.30;;;;;;5001925;28;20058;-69
2023/07/26 13:13:03;;;;;;;4.78;1.83;;;23.40;84.60;;;;;;5003475;28;20045;-68
2023/07/26 13:15:49;;;;;;;5.97;1.83;;;23.60;83.20;;;;;;4992333;28;20031;-68
2023/07/26 13:18:36;;;;;;;10.07;2.30;;;23.80;81.60;;;;;;5000218;28;20125;-68
2023/07/26 13:21:22;;;;;;;2.58;1.23;;;23.90;79.70;;;;;;5002060;28;20494;-69
2023/07/26 13:24:08;;;;;;;3.53;1.83;;;23.80;78.40;;;;;;5005722;28;20068;-70
2023/07/26 13:26:53;;;;;;;4.88;1.42;;;23.70;76.70;;;;;;4981348;28;20754;-70
2023/07/26 13:29:39;;;;;;;3.10;1.52;;;23.40;75.00;;;;;;4994382;28;20073;-70
2023/07/26 13:32:25;;;;;;;5.63;1.98;;;23.30;75.50;;;;;;5000056;28;20128;-69
2023/07/26 13:35:12;;;;;;;11.10;2.38;;;23.10;76.40;;;;;;4999041;28;20066;-70
2023/07/26 13:37:58;;;;;;;8.30;2.25;;;23.10;77.50;;;;;;4995639;28;20030;-69
2023/07/26 13:40:44;;;;;;;1.80;1.30;;;23.10;78.10;;;;;;4982599;28;20472;-68
2023/07/26 13:43:30;;;;;;;3.67;1.50;;;23.20;76.90;;;;;;5006378;28;20046;-69
2023/07/26 13:46:16;;;;;;;3.40;1.63;;;23.20;76.10;;;;;;4992686;28;20056;-69
2023/07/26 13:49:04;;;;;;;6.95;2.03;;;23.20;74.80;;;;;;5009626;28;20108;-69
2023/07/26 13:51:50;;;;;;;4.90;1.85;;;23.30;75.70;;;;;;5003977;28;20890;-69
2023/07/26 13:54:37;;;;;;;4.65;2.00;;;23.50;75.10;;;;;;5005353;28;20382;-70
2023/07/26 13:57:23;;;;;;;3.50;1.75;;;23.80;75.30;;;;;;5004777;28;20066;-69
2023/07/26 14:00:09;;;;;;;2.58;1.30;;;24.00;74.20;;;;;;4992409;28;20065;-69
2023/07/26 14:02:55;;;;;;;4.45;2.13;;;24.00;73.20;;;;;;5009386;28;20497;-69
2023/07/26 14:05:41;;;;;;;2.13;1.48;;;24.00;72.90;;;;;;5003940;28;20054;-69
2023/07/26 14:08:27;;;;;;;4.75;1.73;;;24.00;71.60;;;;;;5004990;28;20141;-69
2023/07/26 14:11:13;;;;;;;4.53;1.60;;;24.10;70.60;;;;;;5002070;28;20049;-69
2023/07/26 14:14:02;;;;;;;3.53;1.65;;;24.00;69.30;;;;;;5004014;28;20356;-69
2023/07/26 14:16:48;;;;;;;3.63;2.10;;;23.80;69.00;;;;;;5002423;28;21813;-69
2023/07/26 14:19:34;;;;;;;1.88;1.40;;;23.30;69.40;;;;;;5000785;28;20168;-70
2023/07/26 14:22:20;;;;;;;2.13;1.15;;;22.90;70.80;;;;;;5001688;28;20132;-70
2023/07/26 14:25:06;;;;;;;2.45;1.42;;;22.60;71.10;;;;;;4999337;28;20045;-70
2023/07/26 14:27:52;;;;;;;6.22;1.33;;;22.10;70.80;;;;;;4990431;28;20104;-70